Time;durP1;ratioP1;P1;durP2;ratioP2;P2;SDS_P1;SDS_P2;PMS_P1;PMS_P2;Temp;Humidity;BMP_temperature;BMP_pressure;BME280_temperature;BME280_humidity;BME280_pressure;Samples;Min_cycle;Max_cycle;Signal;HPM_P1;HPM_P2
2021/03/14 00:02:19;;;;;;;9.47;1.93;;;3.30;99.90;;;;;;5054459;28;20306;-76
2021/03/14 00:04:46;;;;;;;7.30;1.80;;;3.30;99.90;;;;;;5053936;28;20239;-76
2021/03/14 00:07:12;;;;;;;11.40;2.40;;;3.30;99.90;;;;;;5054243;28;20230;-76
2021/03/14 00:09:38;;;;;;;7.17;1.90;;;3.20;99.90;;;;;;5054379;28;20231;-76
2021/03/14 00:12:07;;;;;;;4.43;1.87;;;3.20;99.90;;;;;;5054154;28;20327;-76
2021/03/14 00:14:33;;;;;;;8.73;2.27;;;3.20;99.90;;;;;;5053145;28;20227;-76
2021/03/14 00:17:01;;;;;;;9.03;1.90;;;3.10;99.90;;;;;;5042696;28;20252;-76
2021/03/14 00:19:28;;;;;;;6.37;1.80;;;3.10;99.90;;;;;;5053565;28;20263;-76
2021/03/14 00:21:54;;;;;;;9.27;2.10;;;3.10;99.90;;;;;;5053444;28;20562;-76
2021/03/14 00:24:20;;;;;;;9.80;1.90;;;3.10;99.90;;;;;;5054030;28;20199;-76
2021/03/14 00:26:47;;;;;;;3.80;1.50;;;3.00;99.90;;;;;;5053701;28;20285;-76
2021/03/14 00:29:13;;;;;;;8.47;1.87;;;3.10;99.90;;;;;;5054071;28;20244;-76
2021/03/14 00:31:40;;;;;;;11.03;2.33;;;3.10;99.90;;;;;;5053606;28;20675;-76
2021/03/14 00:34:07;;;;;;;6.60;1.50;;;3.10;99.90;;;;;;5053129;28;20227;-76
2021/03/14 00:36:33;;;;;;;11.10;1.90;;;3.00;99.90;;;;;;5052960;28;20249;-76
2021/03/14 00:39:00;;;;;;;8.40;2.27;;;3.00;99.90;;;;;;5038334;28;20327;-76
2021/03/14 00:41:26;;;;;;;8.57;2.27;;;3.00;99.90;;;;;;5033925;28;20242;-76
2021/03/14 00:43:53;;;;;;;8.07;2.10;;;3.00;99.90;;;;;;5033052;28;20315;-76
2021/03/14 00:46:19;;;;;;;5.20;1.80;;;3.00;99.90;;;;;;5033819;28;20232;-76
2021/03/14 00:48:46;;;;;;;7.23;2.03;;;3.00;99.90;;;;;;5033321;28;20236;-76
2021/03/14 00:51:13;;;;;;;5.77;1.97;;;2.90;99.90;;;;;;5045442;28;20231;-76
2021/03/14 00:53:39;;;;;;;9.97;1.90;;;2.90;99.90;;;;;;5053378;28;20243;-76
2021/03/14 00:56:06;;;;;;;8.83;1.63;;;3.00;99.90;;;;;;5053771;28;20642;-76
2021/03/14 00:58:33;;;;;;;7.77;2.40;;;3.00;99.90;;;;;;5053265;28;20242;-76
2021/03/14 01:00:59;;;;;;;7.77;2.13;;;3.00;99.90;;;;;;5052456;28;20741;-76
2021/03/14 01:03:26;;;;;;;9.63;2.20;;;3.10;99.90;;;;;;5052929;28;20200;-76
2021/03/14 01:05:52;;;;;;;11.17;2.00;;;3.10;99.90;;;;;;5053366;28;20230;-76
2021/03/14 01:08:20;;;;;;;8.77;2.10;;;3.00;99.90;;;;;;5051890;28;20631;-76
2021/03/14 01:10:47;;;;;;;7.23;1.97;;;2.90;99.90;;;;;;5052481;28;20199;-76
2021/03/14 01:13:14;;;;;;;6.17;1.70;;;2.90;99.90;;;;;;5053424;28;20609;-76
2021/03/14 01:15:40;;;;;;;6.70;1.43;;;3.00;99.90;;;;;;5052604;28;20294;-76
2021/03/14 01:18:06;;;;;;;7.67;2.00;;;3.00;99.90;;;;;;5051815;28;20251;-76
2021/03/14 01:20:33;;;;;;;7.67;1.80;;;3.10;99.90;;;;;;5052485;28;20278;-77
2021/03/14 01:22:59;;;;;;;7.90;1.60;;;3.10;99.90;;;;;;5052883;28;20236;-76
2021/03/14 01:25:26;;;;;;;7.60;2.00;;;3.10;99.90;;;;;;5044441;28;20255;-76
2021/03/14 01:27:53;;;;;;;6.90;1.83;;;3.00;99.90;;;;;;5044081;28;20654;-76
2021/03/14 01:30:20;;;;;;;15.13;1.93;;;3.00;99.90;;;;;;5052186;28;20277;-76
2021/03/14 01:32:48;;;;;;;6.50;1.47;;;3.00;99.90;;;;;;5052186;28;20679;-76
2021/03/14 01:35:15;;;;;;;7.40;1.63;;;3.00;99.90;;;;;;5036768;28;20645;-76
2021/03/14 01:37:41;;;;;;;6.13;1.70;;;3.00;99.90;;;;;;5025062;28;20287;-76
2021/03/14 01:40:10;;;;;;;7.20;1.47;;;2.90;99.90;;;;;;5052341;28;20735;-76
2021/03/14 01:42:37;;;;;;;9.00;1.90;;;2.90;99.90;;;;;;5043611;28;20204;-76
2021/03/14 01:45:05;;;;;;;9.07;2.00;;;2.90;99.90;;;;;;5047932;28;20770;-76
2021/03/14 01:47:34;;;;;;;6.47;1.57;;;2.80;99.90;;;;;;5052198;28;20202;-76
2021/03/14 01:50:04;;;;;;;10.03;2.40;;;2.80;99.90;;;;;;5050847;28;20235;-76
2021/03/14 01:52:32;;;;;;;6.00;2.03;;;2.70;99.90;;;;;;5052553;28;20257;-76
2021/03/14 01:54:58;;;;;;;9.33;2.27;;;2.60;99.90;;;;;;5051718;28;20279;-76
2021/03/14 01:57:25;;;;;;;10.40;2.27;;;2.60;99.90;;;;;;5036850;28;20240;-76
2021/03/14 01:59:52;;;;;;;10.03;2.10;;;2.60;99.90;;;;;;5032043;28;20263;-77
2021/03/14 02:02:18;;;;;;;5.70;1.73;;;2.60;99.90;;;;;;5046846;28;20235;-76
2021/03/14 02:04:45;;;;;;;6.90;1.80;;;2.60;99.90;;;;;;5051445;28;20242;-76
2021/03/14 02:07:11;;;;;;;11.97;1.80;;;2.60;99.90;;;;;;5052195;28;20581;-76
2021/03/14 02:09:38;;;;;;;7.80;1.77;;;2.60;99.90;;;;;;5052453;28;20238;-76
2021/03/14 02:12:08;;;;;;;6.10;1.43;;;2.60;99.90;;;;;;5052048;28;20227;-76
2021/03/14 02:14:37;;;;;;;5.67;1.60;;;2.50;99.90;;;;;;5052166;28;20243;-76
2021/03/14 02:17:06;;;;;;;7.00;1.70;;;2.60;99.90;;;;;;5046396;28;20251;-76
2021/03/14 02:19:36;;;;;;;10.37;1.40;;;2.60;99.90;;;;;;5023329;28;20274;-76
2021/03/14 02:22:03;;;;;;;12.87;1.50;;;2.60;99.90;;;;;;5051539;28;20204;-76
2021/03/14 02:24:38;;;;;;;7.23;1.50;;;2.60;99.90;;;;;;5052093;28;20627;-76
2021/03/14 02:27:08;;;;;;;9.73;1.50;;;2.50;99.90;;;;;;5052030;28;20729;-75
2021/03/14 02:29:36;;;;;;;7.17;1.60;;;2.50;99.90;;;;;;5051892;28;20231;-76
2021/03/14 02:32:05;;;;;;;7.70;1.57;;;2.60;99.90;;;;;;5051587;28;20294;-75
2021/03/14 02:34:35;;;;;;;9.33;1.67;;;2.60;99.90;;;;;;5051655;28;20208;-75
2021/03/14 02:37:04;;;;;;;10.77;2.23;;;2.60;99.90;;;;;;5045102;28;20242;-75
2021/03/14 02:39:30;;;;;;;11.03;2.27;;;2.60;99.90;;;;;;5031928;28;20742;-78
2021/03/14 02:41:59;;;;;;;11.30;2.00;;;2.60;99.90;;;;;;5033474;28;20232;-75
2021/03/14 02:44:32;;;;;;;11.60;1.93;;;2.60;99.90;;;;;;5051729;28;20294;-77
2021/03/14 02:47:00;;;;;;;9.20;1.40;;;2.60;99.90;;;;;;5051805;28;20227;-77
2021/03/14 02:49:27;;;;;;;9.87;1.50;;;2.60;99.90;;;;;;5049832;28;20235;-77
2021/03/14 02:51:54;;;;;;;7.57;1.40;;;2.50;99.90;;;;;;5051930;28;20280;-77
2021/03/14 02:54:23;;;;;;;6.67;1.57;;;2.50;99.90;;;;;;5051721;28;20239;-77
2021/03/14 02:56:52;;;;;;;10.43;1.70;;;2.50;99.90;;;;;;5051306;28;20285;-77
2021/03/14 02:59:21;;;;;;;13.57;2.27;;;2.50;99.90;;;;;;5051383;28;20715;-77
2021/03/14 03:01:51;;;;;;;11.20;2.30;;;2.40;99.90;;;;;;5051390;28;20232;-77
2021/03/14 03:04:19;;;;;;;8.93;2.00;;;2.40;99.90;;;;;;5042747;28;20643;-77
2021/03/14 03:06:47;;;;;;;9.17;1.83;;;2.40;99.90;;;;;;5018657;28;20639;-77
2021/03/14 03:09:15;;;;;;;10.43;2.17;;;2.40;99.90;;;;;;5031831;28;20294;-77
2021/03/14 03:11:43;;;;;;;12.63;1.50;;;2.40;99.90;;;;;;5031452;28;20240;-77
2021/03/14 03:14:13;;;;;;;9.77;1.73;;;2.40;99.90;;;;;;5039572;28;20599;-78
2021/03/14 03:16:42;;;;;;;10.03;1.87;;;2.40;99.90;;;;;;5055098;28;20199;-77
2021/03/14 03:19:12;;;;;;;9.17;1.83;;;2.50;99.90;;;;;;5048268;28;20262;-77
2021/03/14 03:21:39;;;;;;;8.33;1.63;;;2.50;99.90;;;;;;5035130;28;20229;-77
2021/03/14 03:24:07;;;;;;;9.53;1.70;;;2.50;99.90;;;;;;5050631;28;20235;-77
2021/03/14 03:26:33;;;;;;;9.70;1.70;;;2.50;99.90;;;;;;5054859;28;20231;-77
2021/03/14 03:28:59;;;;;;;9.20;2.10;;;2.60;99.90;;;;;;5054515;28;20595;-77
2021/03/14 03:31:26;;;;;;;11.97;1.80;;;2.50;99.90;;;;;;5055052;28;20394;-77
2021/03/14 03:33:52;;;;;;;15.00;1.90;;;2.60;99.90;;;;;;5048802;28;20335;-77
2021/03/14 03:36:20;;;;;;;13.90;1.77;;;2.60;99.90;;;;;;5048909;28;20325;-76
2021/03/14 03:38:46;;;;;;;13.30;2.03;;;2.60;99.90;;;;;;5037806;28;20243;-77
2021/03/14 03:41:14;;;;;;;10.53;1.60;;;2.70;99.90;;;;;;5054510;28;20291;-77
2021/03/14 03:43:41;;;;;;;9.53;2.23;;;2.70;99.90;;;;;;5054870;28;20281;-77
2021/03/14 03:46:11;;;;;;;9.20;1.60;;;2.70;99.90;;;;;;5054407;28;20243;-77
2021/03/14 03:48:44;;;;;;;9.97;1.70;;;2.70;99.90;;;;;;5051836;28;20295;-77
2021/03/14 03:51:11;;;;;;;10.70;1.60;;;2.70;99.90;;;;;;5043210;28;20208;-77
2021/03/14 03:53:40;;;;;;;7.37;1.47;;;2.70;99.90;;;;;;5034167;28;20698;-77
2021/03/14 03:56:09;;;;;;;9.43;1.90;;;2.70;99.90;;;;;;5034544;28;20236;-77
2021/03/14 03:58:37;;;;;;;9.90;1.53;;;2.70;99.90;;;;;;5034031;28;20232;-77
2021/03/14 04:01:04;;;;;;;9.70;2.10;;;2.80;99.90;;;;;;5034243;28;20768;-77
2021/03/14 04:03:35;;;;;;;10.27;1.70;;;2.80;99.90;;;;;;5048097;28;20274;-77
2021/03/14 04:06:02;;;;;;;10.70;1.97;;;2.70;99.90;;;;;;5054442;28;20203;-77
2021/03/14 04:08:30;;;;;;;8.67;1.70;;;2.70;99.90;;;;;;5054055;28;20655;-77
2021/03/14 04:10:58;;;;;;;8.80;1.63;;;2.60;99.90;;;;;;5050080;28;20247;-77
2021/03/14 04:13:26;;;;;;;12.03;1.97;;;2.70;99.90;;;;;;5033961;28;20238;-77
2021/03/14 04:15:52;;;;;;;9.37;1.60;;;2.60;99.90;;;;;;5034267;28;20240;-77
2021/03/14 04:18:20;;;;;;;9.70;1.67;;;2.60;99.90;;;;;;5049436;28;20254;-77
2021/03/14 04:20:50;;;;;;;10.00;1.63;;;2.60;99.90;;;;;;5053723;28;20270;-77
2021/03/14 04:23:20;;;;;;;9.57;1.83;;;2.60;99.90;;;;;;5048155;28;20246;-77
2021/03/14 04:25:49;;;;;;;9.47;1.80;;;2.50;99.90;;;;;;5052367;28;20235;-77
2021/03/14 04:28:18;;;;;;;12.93;1.90;;;2.60;99.90;;;;;;5041406;28;20235;-77
2021/03/14 04:30:45;;;;;;;13.53;1.93;;;2.70;99.90;;;;;;5050627;28;20241;-77
2021/03/14 04:33:13;;;;;;;12.63;1.60;;;2.90;99.90;;;;;;5054048;28;20236;-77
2021/03/14 04:35:41;;;;;;;7.27;1.67;;;2.90;99.90;;;;;;5053578;28;20204;-77
2021/03/14 04:38:08;;;;;;;8.37;1.77;;;2.80;99.90;;;;;;5053974;28;20321;-77
2021/03/14 04:40:35;;;;;;;9.90;1.87;;;2.80;99.90;;;;;;5053109;28;20278;-77
2021/03/14 04:43:03;;;;;;;8.70;1.87;;;2.70;99.90;;;;;;5036182;28;20199;-77
2021/03/14 04:45:32;;;;;;;11.13;1.70;;;2.60;99.90;;;;;;5053555;28;20687;-77
2021/03/14 04:47:59;;;;;;;12.23;2.10;;;2.60;99.90;;;;;;5033537;28;20703;-77
2021/03/14 04:50:27;;;;;;;12.50;1.93;;;2.60;99.90;;;;;;5034055;28;20255;-77
2021/03/14 04:52:57;;;;;;;11.27;2.53;;;2.60;99.90;;;;;;5047418;28;20235;-77
2021/03/14 04:55:27;;;;;;;10.23;1.70;;;2.50;99.90;;;;;;5053410;28;20604;-77
2021/03/14 04:57:55;;;;;;;9.47;2.20;;;2.50;99.90;;;;;;5053500;28;20212;-77
2021/03/14 05:00:23;;;;;;;12.20;2.10;;;2.50;99.90;;;;;;5052656;28;20695;-77
2021/03/14 05:02:57;;;;;;;11.73;2.23;;;2.40;99.90;;;;;;5052671;28;20629;-78
2021/03/14 05:05:25;;;;;;;7.07;1.70;;;2.40;99.90;;;;;;5035684;28;20235;-77
2021/03/14 05:07:53;;;;;;;9.90;2.13;;;2.40;99.90;;;;;;5051415;28;20231;-77
2021/03/14 05:10:22;;;;;;;11.63;1.80;;;2.40;99.90;;;;;;5052384;28;20230;-77
2021/03/14 05:12:49;;;;;;;13.57;2.40;;;2.40;99.90;;;;;;5052877;28;20235;-77
2021/03/14 05:15:18;;;;;;;13.87;2.00;;;2.40;99.90;;;;;;5053601;28;20253;-77
2021/03/14 05:17:47;;;;;;;12.27;1.97;;;2.40;99.90;;;;;;5041714;28;20718;-77
2021/03/14 05:20:16;;;;;;;7.57;1.77;;;2.30;99.90;;;;;;5040759;28;20264;-77
2021/03/14 05:22:45;;;;;;;9.07;1.90;;;2.30;99.90;;;;;;5052549;28;20723;-77
2021/03/14 05:25:14;;;;;;;10.83;1.77;;;2.20;99.90;;;;;;5050940;28;20686;-77
2021/03/14 05:27:42;;;;;;;11.57;1.70;;;2.20;99.90;;;;;;5037868;28;20670;-77
2021/03/14 05:30:10;;;;;;;10.67;1.70;;;2.20;99.90;;;;;;5052603;28;20202;-77
2021/03/14 05:32:36;;;;;;;8.13;1.70;;;2.20;99.90;;;;;;5052841;28;20242;-77
2021/03/14 05:35:03;;;;;;;10.63;2.07;;;2.20;99.90;;;;;;5042828;28;20280;-77
2021/03/14 05:37:31;;;;;;;11.20;1.80;;;2.20;99.90;;;;;;5032601;28;20239;-77
2021/03/14 05:39:57;;;;;;;7.87;2.10;;;2.20;99.90;;;;;;5031963;28;20801;-77
2021/03/14 05:42:24;;;;;;;12.23;1.87;;;2.20;99.90;;;;;;5032644;28;20235;-77
2021/03/14 05:44:51;;;;;;;12.40;2.03;;;2.20;99.90;;;;;;5032920;28;20200;-77
2021/03/14 05:47:17;;;;;;;12.70;1.90;;;2.20;99.90;;;;;;5032530;28;20727;-77
2021/03/14 05:49:44;;;;;;;8.07;1.57;;;2.20;99.90;;;;;;5032500;28;20278;-77
2021/03/14 05:52:16;;;;;;;13.87;1.73;;;2.20;99.90;;;;;;5042402;28;20957;-77
2021/03/14 05:54:45;;;;;;;11.87;1.97;;;2.20;99.90;;;;;;5048685;28;20234;-77
2021/03/14 05:57:12;;;;;;;12.73;1.80;;;2.30;99.90;;;;;;5052375;28;20638;-77
2021/03/14 05:59:40;;;;;;;13.70;1.83;;;2.30;99.90;;;;;;5052351;28;20265;-77
2021/03/14 06:02:07;;;;;;;11.67;1.90;;;2.30;99.90;;;;;;5052259;28;20267;-77
2021/03/14 06:04:35;;;;;;;11.60;1.90;;;2.30;99.90;;;;;;5052609;28;20234;-77
2021/03/14 06:07:01;;;;;;;15.37;2.00;;;2.40;99.90;;;;;;5051393;28;20288;-77
2021/03/14 06:09:28;;;;;;;10.87;2.10;;;2.30;99.90;;;;;;5052154;28;20237;-77
2021/03/14 06:11:55;;;;;;;12.53;2.40;;;2.20;99.90;;;;;;5051334;28;20687;-77
2021/03/14 06:14:22;;;;;;;14.00;2.80;;;2.20;99.90;;;;;;5051993;28;20195;-77
2021/03/14 06:16:48;;;;;;;12.93;3.43;;;2.20;99.90;;;;;;5051518;28;20664;-77
2021/03/14 06:19:15;;;;;;;18.93;5.03;;;2.20;99.90;;;;;;5032384;28;20247;-77
2021/03/14 06:21:41;;;;;;;19.90;3.90;;;2.20;99.90;;;;;;5031889;28;20285;-77
2021/03/14 06:24:10;;;;;;;14.13;3.30;;;2.20;99.90;;;;;;5031818;28;20200;-77
2021/03/14 06:26:39;;;;;;;18.30;3.20;;;2.10;99.90;;;;;;5038022;28;20239;-77
2021/03/14 06:29:26;;;;;;;12.70;2.87;;;2.10;99.90;;;;;;5032019;28;20237;-77
2021/03/14 06:31:55;;;;;;;13.27;3.40;;;2.10;99.90;;;;;;5039961;28;20612;-77
2021/03/14 06:34:30;;;;;;;12.53;2.30;;;2.10;99.90;;;;;;5051914;28;20235;-77
2021/03/14 06:36:57;;;;;;;10.77;2.50;;;2.20;99.90;;;;;;5051653;28;20296;-78
2021/03/14 06:39:27;;;;;;;12.77;2.33;;;2.20;99.90;;;;;;5044642;28;20260;-77
2021/03/14 06:41:53;;;;;;;13.17;2.17;;;2.20;99.90;;;;;;5031562;28;20236;-76
2021/03/14 06:44:26;;;;;;;11.63;2.53;;;2.30;99.90;;;;;;5032223;28;20204;-77
2021/03/14 06:46:53;;;;;;;15.13;2.50;;;2.40;99.90;;;;;;5043071;28;20231;-77
2021/03/14 06:49:21;;;;;;;12.97;2.70;;;2.50;99.90;;;;;;5045976;28;20607;-77
2021/03/14 06:51:49;;;;;;;13.57;2.73;;;2.70;99.90;;;;;;5044330;28;20298;-77
2021/03/14 06:54:18;;;;;;;12.47;2.60;;;2.80;99.90;;;;;;5051208;28;20691;-76
2021/03/14 06:57:07;;;;;;;15.50;2.73;;;2.90;99.90;;;;;;5035287;28;20235;-77
2021/03/14 06:59:36;;;;;;;13.17;2.20;;;3.10;99.90;;;;;;5035162;28;20260;-77
2021/03/14 07:02:08;;;;;;;13.23;2.50;;;3.10;99.90;;;;;;5047705;28;20201;-77
2021/03/14 07:04:41;;;;;;;12.93;2.20;;;3.30;99.90;;;;;;5055379;28;20239;-77
2021/03/14 07:07:23;;;;;;;11.40;1.97;;;3.40;99.90;;;;;;5042726;28;20203;-77
2021/03/14 07:09:57;;;;;;;12.10;2.43;;;3.70;99.90;;;;;;5037517;28;20229;-77
2021/03/14 07:12:27;;;;;;;9.47;2.23;;;4.60;99.90;;;;;;5055224;28;20232;-77
2021/03/14 07:14:54;;;;;;;13.63;3.03;;;5.20;99.90;;;;;;5055165;28;20242;-77
2021/03/14 07:17:42;;;;;;;9.33;2.10;;;5.60;99.90;;;;;;5047153;28;20248;-78
2021/03/14 07:20:12;;;;;;;9.67;2.80;;;6.20;99.90;;;;;;5030309;28;20693;-77
2021/03/14 07:22:39;;;;;;;11.40;2.27;;;6.70;99.90;;;;;;5035266;28;20233;-77
2021/03/14 07:25:19;;;;;;;9.50;2.43;;;7.10;99.90;;;;;;5035654;28;20202;-77
2021/03/14 07:27:48;;;;;;;10.83;2.50;;;6.20;99.90;;;;;;5041067;28;20235;-78
2021/03/14 07:30:17;;;;;;;8.80;2.47;;;6.40;99.90;;;;;;5054855;28;20623;-78
2021/03/14 07:32:44;;;;;;;12.27;3.17;;;7.30;99.90;;;;;;5054990;28;20235;-77
2021/03/14 07:35:11;;;;;;;9.13;3.00;;;8.10;99.90;;;;;;5055200;28;20230;-78
2021/03/14 07:37:41;;;;;;;14.77;3.63;;;8.80;99.90;;;;;;5055178;28;20234;-77
2021/03/14 07:40:09;;;;;;;9.20;3.40;;;9.50;99.90;;;;;;5055439;28;20227;-77
2021/03/14 07:42:35;;;;;;;8.60;2.70;;;10.30;99.90;;;;;;5054888;28;20915;-77
2021/03/14 07:45:04;;;;;;;10.73;2.83;;;10.60;99.90;;;;;;5054856;28;20231;-77
2021/03/14 07:47:35;;;;;;;8.63;2.87;;;10.70;99.90;;;;;;5054685;28;20272;-77
2021/03/14 07:50:03;;;;;;;10.93;2.40;;;10.40;99.90;;;;;;5054468;28;20288;-77
2021/03/14 07:52:30;;;;;;;8.73;2.37;;;10.30;99.90;;;;;;5054530;28;20254;-77
2021/03/14 07:54:59;;;;;;;10.27;3.07;;;10.40;99.90;;;;;;5054193;28;20695;-77
2021/03/14 07:57:27;;;;;;;9.13;3.23;;;10.30;99.90;;;;;;5026767;28;20260;-77
2021/03/14 07:59:54;;;;;;;10.27;2.60;;;10.80;99.90;;;;;;5054293;28;20247;-77
2021/03/14 08:02:25;;;;;;;7.30;2.30;;;11.70;99.90;;;;;;5053615;28;20208;-77
2021/03/14 08:04:54;;;;;;;9.00;2.77;;;12.00;99.90;;;;;;5054350;28;20833;-78
2021/03/14 08:07:48;;;;;;;6.93;2.50;;;12.80;99.90;;;;;;5054588;28;20236;-78
2021/03/14 08:10:38;;;;;;;3.83;2.33;;;13.40;99.90;;;;;;5034902;28;20258;-78
2021/03/14 08:13:06;;;;;;;10.45;2.65;;;13.70;99.90;;;;;;5034762;28;20197;-77
2021/03/14 08:15:35;;;;;;;8.13;2.20;;;12.80;99.90;;;;;;5017051;28;20246;-77
2021/03/14 08:18:03;;;;;;;7.65;2.60;;;13.40;99.90;;;;;;5046508;28;20714;-78
2021/03/14 08:20:42;;;;;;;7.75;2.42;;;13.90;99.90;;;;;;5054006;28;20243;-77
2021/03/14 08:23:09;;;;;;;8.48;2.78;;;14.10;99.90;;;;;;5036816;28;20226;-78
2021/03/14 08:25:41;;;;;;;7.95;2.67;;;14.70;99.90;;;;;;5053615;28;20208;-78
2021/03/14 08:28:33;;;;;;;6.57;2.50;;;14.70;99.90;;;;;;5043095;28;20605;-77
2021/03/14 08:31:01;;;;;;;7.20;2.83;;;15.50;99.90;;;;;;5041975;28;20583;-78
2021/03/14 08:33:32;;;;;;;7.57;2.45;;;15.50;99.90;;;;;;5053633;28;20235;-78
2021/03/14 08:36:03;;;;;;;9.52;2.55;;;15.10;99.90;;;;;;5043316;28;20230;-78
2021/03/14 08:39:02;;;;;;;7.82;2.40;;;15.30;99.90;;;;;;5044113;28;20234;-78
2021/03/14 08:41:50;;;;;;;6.57;2.55;;;15.30;99.90;;;;;;5038550;28;20221;-79
2021/03/14 08:44:40;;;;;;;8.63;2.83;;;15.10;99.90;;;;;;5037089;28;20668;-77
2021/03/14 08:47:18;;;;;;;9.23;2.95;;;15.00;99.90;;;;;;5030958;28;20202;-79
2021/03/14 08:49:56;;;;;;;8.77;2.60;;;15.10;99.90;;;;;;5031533;28;20196;-77
2021/03/14 08:52:51;;;;;;;7.38;2.67;;;14.90;99.90;;;;;;5048958;28;20738;-77
2021/03/14 09:05:48;;;;;;;6.75;2.90;;;16.80;99.90;;;;;;4979326;28;20186;-76
2021/03/14 09:08:18;;;;;;;10.15;2.50;;;16.60;99.90;;;;;;4985812;28;20681;-76
2021/03/14 09:10:44;;;;;;;8.70;2.55;;;16.30;99.90;;;;;;4991655;28;20197;-77
2021/03/14 09:13:11;;;;;;;10.00;2.50;;;16.80;99.90;;;;;;4991040;28;20218;-77
2021/03/14 09:15:47;;;;;;;8.60;2.90;;;17.10;99.90;;;;;;4991639;28;20210;-78
2021/03/14 09:18:14;;;;;;;7.95;2.10;;;17.80;99.90;;;;;;4976286;28;20218;-76
2021/03/14 09:20:40;;;;;;;11.90;2.83;;;16.80;99.90;;;;;;4987478;28;20233;-79
2021/03/14 09:23:07;;;;;;;9.38;2.65;;;16.50;99.90;;;;;;4985695;28;20206;-79
2021/03/14 09:25:38;;;;;;;9.07;2.47;;;17.20;99.90;;;;;;4989956;28;20205;-78
2021/03/14 09:28:05;;;;;;;8.48;2.20;;;17.60;99.90;;;;;;4987369;28;20674;-79
2021/03/14 09:30:32;;;;;;;10.77;2.50;;;17.80;99.90;;;;;;4979223;28;20198;-79
2021/03/14 09:33:03;;;;;;;13.10;2.80;;;17.50;99.90;;;;;;5032951;28;20282;-77
2021/03/14 09:35:32;;;;;;;8.07;2.60;;;18.10;99.90;;;;;;5045908;28;20945;-77
2021/03/14 09:38:02;;;;;;;8.80;2.70;;;17.70;99.90;;;;;;5052095;28;20287;-77
2021/03/14 09:40:31;;;;;;;8.60;2.33;;;17.80;99.90;;;;;;5041474;28;20698;-77
2021/03/14 09:43:26;;;;;;;10.73;2.60;;;17.60;99.90;;;;;;5045792;28;20199;-77
2021/03/14 09:45:54;;;;;;;9.63;2.38;;;17.10;99.90;;;;;;5035400;28;20274;-77
2021/03/14 09:48:22;;;;;;;7.63;2.47;;;16.60;99.90;;;;;;5044396;28;20204;-77
2021/03/14 09:50:52;;;;;;;10.55;2.83;;;16.50;99.90;;;;;;5044733;28;20226;-77
2021/03/14 09:53:19;;;;;;;9.48;2.33;;;17.10;99.90;;;;;;5071372;28;20607;-76
2021/03/14 09:55:47;;;;;;;10.93;2.70;;;16.80;99.90;;;;;;5071588;28;20600;-76
2021/03/14 09:58:16;;;;;;;9.18;2.38;;;17.20;99.90;;;;;;5044472;28;20228;-76
2021/03/14 10:00:45;;;;;;;11.80;2.45;;;17.30;99.90;;;;;;5047816;28;20319;-76
2021/03/14 10:03:17;;;;;;;11.30;2.90;;;17.70;99.90;;;;;;5051852;28;20682;-76
2021/03/14 10:05:46;;;;;;;11.05;2.30;;;17.90;99.90;;;;;;5050863;28;20235;-77
2021/03/14 10:08:17;;;;;;;9.45;2.55;;;17.80;99.90;;;;;;5049096;28;20227;-76
2021/03/14 10:10:44;;;;;;;11.95;2.47;;;17.70;99.90;;;;;;5052691;28;20285;-77
2021/03/14 10:13:11;;;;;;;10.68;2.55;;;17.90;99.90;;;;;;5045411;28;20661;-76
2021/03/14 10:15:38;;;;;;;9.38;2.50;;;17.80;99.90;;;;;;5053597;28;20242;-78
2021/03/14 10:18:06;;;;;;;8.88;2.63;;;17.00;99.90;;;;;;5051238;28;20255;-76
2021/03/14 10:20:35;;;;;;;7.95;2.08;;;17.80;99.90;;;;;;5043348;28;20264;-79
2021/03/14 10:23:03;;;;;;;9.95;2.30;;;18.50;99.90;;;;;;5026247;28;20200;-76
2021/03/14 10:25:31;;;;;;;9.82;2.33;;;17.80;99.90;;;;;;5044360;28;20228;-75
2021/03/14 10:28:06;;;;;;;7.18;1.70;;;16.80;99.90;;;;;;5054580;28;20199;-77
2021/03/14 10:30:32;;;;;;;10.27;2.38;;;16.10;99.90;;;;;;5062503;28;20613;-78
2021/03/14 10:32:59;;;;;;;11.02;2.47;;;16.70;99.90;;;;;;5048718;28;20576;-79
2021/03/14 10:35:27;;;;;;;8.30;2.13;;;17.40;99.90;;;;;;5047559;28;20204;-77
2021/03/14 10:37:53;;;;;;;9.60;2.00;;;16.20;99.90;;;;;;5033860;28;20652;-77
2021/03/14 10:40:22;;;;;;;8.85;2.20;;;16.80;99.90;;;;;;5052440;28;20255;-76
2021/03/14 10:42:49;;;;;;;7.50;2.13;;;16.70;99.90;;;;;;5050345;28;20573;-78
2021/03/14 10:45:18;;;;;;;10.07;2.25;;;16.90;99.90;;;;;;5060947;28;20199;-76
2021/03/14 10:47:46;;;;;;;8.68;2.45;;;18.10;99.90;;;;;;5061552;28;20235;-77
2021/03/14 10:50:20;;;;;;;7.45;2.35;;;18.00;99.90;;;;;;5049741;28;20913;-76
2021/03/14 10:53:06;;;;;;;8.27;1.98;;;16.70;99.90;;;;;;5053790;28;20222;-76
2021/03/14 10:55:34;;;;;;;7.95;2.33;;;15.60;99.90;;;;;;5035926;28;20208;-75
2021/03/14 10:58:22;;;;;;;11.93;2.13;;;15.80;99.90;;;;;;5030980;28;20204;-78
2021/03/14 11:00:50;;;;;;;7.72;2.40;;;16.80;99.90;;;;;;5037514;28;20771;-77
2021/03/14 11:03:30;;;;;;;6.63;1.85;;;16.30;99.90;;;;;;5048745;28;20218;-79
2021/03/14 11:06:11;;;;;;;9.50;2.13;;;15.20;99.90;;;;;;5045962;28;20404;-77
2021/03/14 11:08:52;;;;;;;9.48;2.20;;;16.40;99.90;;;;;;5051931;28;20195;-77
2021/03/14 11:11:19;;;;;;;9.88;1.80;;;17.30;99.90;;;;;;5044911;28;20266;-76
2021/03/14 11:13:46;;;;;;;7.47;1.92;;;17.90;99.90;;;;;;5046643;28;20202;-77
2021/03/14 11:16:13;;;;;;;5.93;1.75;;;17.80;99.90;;;;;;5043976;28;20653;-77
2021/03/14 11:18:39;;;;;;;10.02;2.05;;;17.50;99.90;;;;;;5047977;28;20304;-77
2021/03/14 11:21:06;;;;;;;6.82;2.00;;;17.10;99.90;;;;;;5047043;28;20228;-78
2021/03/14 11:23:33;;;;;;;10.82;2.10;;;15.70;99.90;;;;;;5053966;28;20230;-77
2021/03/14 11:26:00;;;;;;;8.07;2.20;;;16.10;99.90;;;;;;5049974;28;20208;-77
2021/03/14 11:28:27;;;;;;;12.00;2.20;;;15.70;99.90;;;;;;5045660;28;20311;-76
2021/03/14 11:30:55;;;;;;;7.32;2.03;;;16.30;99.90;;;;;;5055608;28;20241;-76
2021/03/14 11:33:21;;;;;;;8.23;1.88;;;16.70;99.90;;;;;;5044425;28;20307;-77
2021/03/14 11:35:48;;;;;;;6.72;1.90;;;15.60;99.90;;;;;;5050355;28;20226;-76
2021/03/14 11:38:14;;;;;;;9.97;1.70;;;15.70;99.90;;;;;;5054537;28;20255;-76
2021/03/14 11:40:40;;;;;;;9.25;2.70;;;15.80;99.90;;;;;;5058129;28;20242;-76
2021/03/14 11:43:08;;;;;;;7.05;1.75;;;16.70;99.90;;;;;;5044992;28;20204;-77
2021/03/14 11:45:34;;;;;;;7.13;1.65;;;18.30;99.90;;;;;;5052487;28;20238;-77
2021/03/14 11:48:01;;;;;;;5.95;1.75;;;18.00;99.90;;;;;;5039927;28;20231;-78
2021/03/14 11:50:27;;;;;;;9.95;1.90;;;17.10;99.90;;;;;;5052802;28;20232;-79
2021/03/14 11:52:53;;;;;;;9.20;1.83;;;15.80;99.90;;;;;;5054367;28;20223;-79
2021/03/14 11:55:20;;;;;;;8.25;2.00;;;15.80;99.90;;;;;;5053173;28;20230;-79
2021/03/14 11:57:46;;;;;;;7.88;1.88;;;16.30;99.90;;;;;;5053767;28;20269;-79
2021/03/14 12:00:15;;;;;;;7.95;1.73;;;17.00;99.90;;;;;;5049554;28;20270;-79
2021/03/14 12:02:42;;;;;;;7.28;1.90;;;18.40;99.90;;;;;;5054121;28;20235;-79
2021/03/14 12:05:09;;;;;;;8.40;2.10;;;19.00;99.90;;;;;;5052979;28;20223;-79
2021/03/14 12:07:35;;;;;;;6.82;1.75;;;17.30;99.90;;;;;;5053171;28;20236;-79
2021/03/14 12:10:02;;;;;;;7.25;1.70;;;16.60;99.90;;;;;;5052610;28;20627;-79
2021/03/14 12:12:29;;;;;;;7.90;1.95;;;15.90;99.90;;;;;;5053307;28;20691;-79
2021/03/14 12:14:55;;;;;;;8.57;2.22;;;16.20;99.90;;;;;;5053636;28;20616;-80
2021/03/14 12:17:24;;;;;;;7.40;1.92;;;16.90;99.90;;;;;;5053435;28;20250;-80
2021/03/14 12:19:50;;;;;;;7.18;1.83;;;17.30;99.90;;;;;;5053626;28;20312;-79
2021/03/14 12:22:17;;;;;;;9.77;2.05;;;18.00;99.90;;;;;;5040790;28;20211;-79
2021/03/14 12:24:44;;;;;;;8.68;1.90;;;18.20;99.90;;;;;;5052390;28;20677;-79
2021/03/14 12:27:11;;;;;;;8.07;1.90;;;17.80;99.90;;;;;;5052097;28;20707;-79
2021/03/14 12:29:47;;;;;;;7.13;1.70;;;16.90;99.90;;;;;;5047223;28;20218;-79
2021/03/14 12:32:15;;;;;;;10.03;1.87;;;15.70;99.90;;;;;;5049718;28;20213;-78
2021/03/14 12:34:44;;;;;;;9.60;1.93;;;14.40;99.90;;;;;;5051659;28;20195;-77
2021/03/14 12:37:11;;;;;;;7.70;1.70;;;14.10;99.90;;;;;;5042393;28;20287;-77
2021/03/14 12:39:37;;;;;;;10.30;2.23;;;15.00;99.90;;;;;;5040074;28;20239;-76
2021/03/14 12:42:04;;;;;;;11.80;1.83;;;15.30;99.90;;;;;;5048058;28;20758;-77
2021/03/14 12:44:30;;;;;;;8.93;2.10;;;14.60;99.90;;;;;;5050909;28;20204;-78
2021/03/14 12:46:57;;;;;;;6.20;1.60;;;13.90;99.90;;;;;;5050375;28;20232;-77
2021/03/14 12:49:23;;;;;;;6.93;1.60;;;13.90;99.90;;;;;;5049116;28;20261;-76
2021/03/14 12:51:50;;;;;;;7.30;1.43;;;13.80;99.90;;;;;;5047724;28;20219;-76
2021/03/14 12:54:17;;;;;;;6.67;1.73;;;14.20;99.90;;;;;;5045586;28;20242;-77
2021/03/14 12:56:43;;;;;;;5.47;1.07;;;15.30;99.90;;;;;;5043661;28;20236;-76
2021/03/14 12:59:10;;;;;;;5.73;1.73;;;15.80;99.90;;;;;;5045368;28;20236;-75
2021/03/14 13:01:36;;;;;;;8.77;1.70;;;16.90;99.90;;;;;;5044190;28;20252;-78
2021/03/14 13:04:03;;;;;;;7.83;1.47;;;16.70;99.90;;;;;;5043463;28;20207;-77
2021/03/14 13:06:29;;;;;;;8.07;2.10;;;17.30;99.90;;;;;;5045024;28;20212;-77
2021/03/14 13:08:57;;;;;;;8.63;1.60;;;17.70;99.90;;;;;;5048977;28;20196;-78